createdAt,value
2018-10-11T00:00:08.938Z,100863.43
2018-10-11T00:00:48.558Z,100860.45
2018-10-11T00:01:27.848Z,100863.95
2018-10-11T00:02:06.105Z,100864.48
2018-10-11T00:02:45.326Z,100864.75
2018-10-11T00:03:25.214Z,100865.27
2018-10-11T00:04:03.063Z,100864.19
2018-10-11T00:04:41.148Z,100870.10
2018-10-11T00:05:18.993Z,100866.33
2018-10-11T00:05:58.803Z,100869.28
2018-10-11T00:06:37.688Z,100873.59
2018-10-11T00:07:15.633Z,100873.30
2018-10-11T00:07:53.484Z,100871.16
2018-10-11T00:08:31.292Z,100874.37
2018-10-11T00:09:11.464Z,100878.94
2018-10-11T00:09:50.460Z,100879.77
2018-10-11T00:10:28.673Z,100876.54
2018-10-11T00:11:06.515Z,100878.67
2018-10-11T00:11:45.958Z,100886.46
2018-10-11T00:12:25.653Z,100880.25
2018-10-11T00:13:04.918Z,100888.30
2018-10-11T00:13:43.250Z,100891.78
2018-10-11T00:14:22.199Z,100895.55
2018-10-11T00:15:00.117Z,100892.33
2018-10-11T00:15:39.350Z,100892.30
2018-10-11T00:16:17.181Z,100897.92
2018-10-11T00:16:55.052Z,100889.03
2018-10-11T00:17:32.899Z,100898.13
2018-10-11T00:18:10.803Z,100900.81
2018-10-11T00:18:48.669Z,100894.62
2018-10-11T00:19:26.565Z,100908.56
2018-10-11T00:20:04.533Z,100905.30
2018-10-11T00:20:42.533Z,100913.08
2018-10-11T00:21:20.344Z,100909.81
2018-10-11T00:21:58.213Z,100914.94
2018-10-11T00:22:36.214Z,100915.98
2018-10-11T00:23:14.152Z,100912.46
2018-10-11T00:23:52.368Z,100910.80
2018-10-11T00:24:30.284Z,100909.69
2018-10-11T00:25:08.261Z,100910.77
2018-10-11T00:25:46.253Z,100920.16
2018-10-11T00:26:24.229Z,100921.20
2018-10-11T00:27:02.126Z,100922.52
2018-10-11T00:27:39.984Z,100922.49
2018-10-11T00:28:17.921Z,100920.58
2018-10-11T00:28:55.841Z,100918.13
2018-10-11T00:29:33.800Z,100918.63
2018-10-11T00:30:11.872Z,100923.17
2018-10-11T00:30:49.926Z,100923.91
2018-10-11T00:31:27.953Z,100922.25
2018-10-11T00:32:05.877Z,100915.19
2018-10-11T00:32:44.053Z,100912.23
2018-10-11T00:33:21.917Z,100915.41
2018-10-11T00:33:59.764Z,100916.99
2018-10-11T00:34:37.626Z,100919.09
2018-10-11T00:35:15.793Z,100912.02
2018-10-11T00:35:54.791Z,100918.77
2018-10-11T00:36:32.674Z,100915.23
2018-10-11T00:37:10.813Z,100912.20
2018-10-11T00:37:48.709Z,100916.73
2018-10-11T00:38:26.575Z,100913.74
2018-10-11T00:39:04.789Z,100914.80
2018-10-11T00:39:42.946Z,100920.17
2018-10-11T00:40:20.829Z,100923.39
2018-10-11T00:40:58.769Z,100924.16
2018-10-11T00:41:36.738Z,100922.52
2018-10-11T00:42:15.868Z,100926.79
2018-10-11T00:42:53.718Z,100929.45
2018-10-11T00:43:31.606Z,100928.62
2018-10-11T00:44:09.674Z,100931.06
2018-10-11T00:44:48.097Z,100923.47
2018-10-11T00:45:26.115Z,100936.61
2018-10-11T00:46:04.346Z,100931.20
2018-10-11T00:46:42.286Z,100935.80
2018-10-11T00:47:20.190Z,100935.22
2018-10-11T00:47:58.045Z,100936.58
2018-10-11T00:48:35.964Z,100933.55
2018-10-11T00:49:14.692Z,100940.00
2018-10-11T00:49:52.652Z,100932.95
2018-10-11T00:50:30.528Z,100939.45
2018-10-11T00:51:08.453Z,100936.13
2018-10-11T00:51:46.315Z,100941.83
2018-10-11T00:52:24.458Z,100940.41
2018-10-11T00:53:02.534Z,100941.47
2018-10-11T00:53:40.481Z,100941.41
2018-10-11T00:54:18.526Z,100941.89
2018-10-11T00:54:56.562Z,100946.71
2018-10-11T00:55:34.490Z,100940.97
2018-10-11T00:56:12.463Z,100942.83
2018-10-11T00:56:50.514Z,100942.49
2018-10-11T00:57:29.137Z,100936.52
2018-10-11T00:58:07.528Z,100937.29
2018-10-11T00:58:45.870Z,100931.87
2018-10-11T00:59:24.234Z,100941.03
2018-10-11T01:00:03.244Z,100935.29
2018-10-11T01:00:41.694Z,100928.19
2018-10-11T01:01:20.451Z,100938.13
2018-10-11T01:01:59.162Z,100933.01
2018-10-11T01:02:38.492Z,100933.16
2018-10-11T01:03:17.195Z,100927.79
2018-10-11T01:03:55.608Z,100935.23
2018-10-11T01:04:34.263Z,100931.67
2018-10-11T01:05:12.931Z,100938.95
2018-10-11T01:05:51.719Z,100937.30
2018-10-11T01:06:30.831Z,100935.89
2018-10-11T01:07:09.330Z,100939.39
2018-10-11T01:07:48.371Z,100937.19
2018-10-11T01:08:27.366Z,100935.53
2018-10-11T01:09:06.742Z,100932.53
2018-10-11T01:09:45.183Z,100932.78
2018-10-11T01:10:23.992Z,100933.79
2018-10-11T01:11:02.521Z,100937.50
2018-10-11T01:11:41.453Z,100930.73
2018-10-11T01:12:20.122Z,100930.17
2018-10-11T01:12:58.817Z,100933.98
2018-10-11T01:13:37.643Z,100928.22
2018-10-11T01:17:17.709Z,100933.72
2018-10-11T01:17:56.329Z,100933.87
2018-10-11T01:18:35.238Z,100939.23
2018-10-11T01:19:14.048Z,100938.94
2018-10-11T01:19:52.764Z,100935.91
2018-10-11T01:20:31.332Z,100936.66
2018-10-11T01:21:10.663Z,100941.72
2018-10-11T01:21:48.994Z,100940.56
2018-10-11T01:22:27.671Z,100937.80
2018-10-11T01:23:06.160Z,100937.20
2018-10-11T01:23:44.607Z,100932.28
2018-10-11T01:24:22.933Z,100938.45
2018-10-11T01:25:01.779Z,100937.30
2018-10-11T01:25:40.273Z,100937.80
2018-10-11T01:26:18.677Z,100937.69
2018-10-11T01:26:56.897Z,100937.33
2018-10-11T01:27:35.269Z,100926.98
2018-10-11T01:28:14.318Z,100931.22
2018-10-11T01:28:52.258Z,100936.03
2018-10-11T01:29:30.244Z,100934.31
2018-10-11T01:30:08.907Z,100934.75
2018-10-11T01:30:51.014Z,100936.05
2018-10-11T01:31:29.510Z,100937.05
2018-10-11T01:32:07.426Z,100945.96
2018-10-11T01:32:45.473Z,100933.95
2018-10-11T01:33:23.545Z,100938.75
2018-10-11T01:34:01.860Z,100940.91
2018-10-11T01:34:39.805Z,100937.16
2018-10-11T01:35:17.709Z,100941.41
2018-10-11T01:35:55.633Z,100944.09
2018-10-11T01:36:33.548Z,100941.87
2018-10-11T01:37:11.689Z,100943.42
2018-10-11T01:37:49.760Z,100941.20
2018-10-11T01:38:28.132Z,100945.52
2018-10-11T01:39:07.049Z,100949.31
2018-10-11T01:39:45.168Z,100952.45
2018-10-11T01:40:23.078Z,100954.55
2018-10-11T01:41:01.079Z,100956.04
2018-10-11T01:41:39.352Z,100957.09
2018-10-11T01:42:17.382Z,100958.32
2018-10-11T01:43:04.997Z,100960.45
2018-10-11T01:43:43.522Z,100959.70
2018-10-11T01:44:21.473Z,100961.24
2018-10-11T01:44:59.546Z,100961.73
2018-10-11T01:45:37.818Z,100958.41
2018-10-11T01:46:16.674Z,100961.12
2018-10-11T01:46:54.492Z,100968.92
2018-10-11T01:47:32.389Z,100961.78
2018-10-11T01:48:10.505Z,100976.90
2018-10-11T01:48:48.404Z,100967.89
2018-10-11T01:49:26.308Z,100977.57
2018-10-11T01:50:04.139Z,100976.15
2018-10-11T01:50:41.985Z,100981.76
2018-10-11T01:51:20.725Z,100989.25
2018-10-11T01:51:58.689Z,100990.54
2018-10-11T01:52:36.738Z,100998.31
2018-10-11T01:53:14.896Z,100995.22
2018-10-11T01:53:53.143Z,100995.33
2018-10-11T01:54:31.112Z,100995.33
2018-10-11T01:55:09.680Z,101001.45
2018-10-11T01:55:47.719Z,101000.66
2018-10-11T01:56:25.742Z,100999.23
2018-10-11T01:57:03.604Z,100997.52
2018-10-11T01:57:41.484Z,101000.55
2018-10-11T01:58:19.441Z,100996.09
2018-10-11T01:58:57.350Z,101002.08
2018-10-11T01:59:35.326Z,100996.09
2018-10-11T02:00:13.285Z,100998.19
2018-10-11T02:00:51.384Z,101002.81
2018-10-11T02:01:29.273Z,100995.22
2018-10-11T02:02:07.243Z,101004.98
2018-10-11T02:02:45.173Z,101007.94
2018-10-11T02:03:23.517Z,101010.03
2018-10-11T02:04:02.992Z,101005.08
2018-10-11T02:04:41.168Z,101012.88
2018-10-11T02:05:19.237Z,101008.49
2018-10-11T02:05:57.179Z,101009.78
2018-10-11T02:06:35.142Z,101009.47
2018-10-11T02:07:13.073Z,101014.91
2018-10-11T02:07:51.065Z,101019.39
2018-10-11T02:08:28.989Z,101020.44
2018-10-11T02:09:06.898Z,101024.34
2018-10-11T02:09:45.049Z,101020.37
2018-10-11T02:10:22.955Z,101014.69
2018-10-11T02:11:00.851Z,101020.61
2018-10-11T02:11:38.883Z,101021.09
2018-10-11T02:12:16.749Z,101024.06
2018-10-11T02:12:54.881Z,101026.15
2018-10-11T02:13:32.789Z,101017.75
2018-10-11T02:14:10.756Z,101029.14
2018-10-11T02:14:48.698Z,101030.23
2018-10-11T02:15:27.107Z,101024.06
2018-10-11T02:16:05.206Z,101024.06
2018-10-11T02:16:43.363Z,101018.94
2018-10-11T02:17:21.233Z,101024.86
2018-10-11T02:17:59.896Z,101025.66
2018-10-11T02:18:38.105Z,101028.06
2018-10-11T02:19:16.595Z,101020.02
2018-10-11T02:19:54.559Z,101026.09
2018-10-11T02:20:32.537Z,101025.59
2018-10-11T02:21:11.101Z,101024.72
2018-10-11T02:21:48.970Z,101028.91
2018-10-11T02:22:27.009Z,101030.27
2018-10-11T02:23:04.995Z,101026.57
2018-10-11T02:23:43.033Z,101028.08
2018-10-11T02:24:20.857Z,101029.96
2018-10-11T02:24:58.905Z,101023.30
2018-10-11T02:25:36.756Z,101034.45
2018-10-11T02:26:14.862Z,101026.22
2018-10-11T02:26:52.925Z,101022.81
2018-10-11T02:27:30.780Z,101027.06
2018-10-11T02:28:08.996Z,101026.87
2018-10-11T02:28:46.981Z,101026.95
2018-10-11T02:29:25.819Z,101034.09
2018-10-11T02:30:03.791Z,101033.87
2018-10-11T02:30:41.715Z,101039.16
2018-10-11T02:31:19.704Z,101040.27
2018-10-11T02:31:57.688Z,101037.30
2018-10-11T02:32:35.603Z,101037.88
2018-10-11T02:33:13.755Z,101031.45
2018-10-11T02:33:51.721Z,101032.31
2018-10-11T02:34:29.803Z,101036.68
2018-10-11T02:35:07.960Z,101038.64
2018-10-11T02:35:45.891Z,101037.03
2018-10-11T02:36:25.154Z,101041.91
2018-10-11T02:37:03.026Z,101039.41
2018-10-11T02:37:41.061Z,101047.10
2018-10-11T02:38:18.974Z,101047.16
2018-10-11T02:38:56.821Z,101049.91
2018-10-11T02:39:34.778Z,101049.91
2018-10-11T02:40:12.799Z,101056.19
2018-10-11T02:40:50.668Z,101054.08
2018-10-11T02:41:28.872Z,101057.64
2018-10-11T02:42:07.521Z,101061.16
2018-10-11T02:42:45.495Z,101058.20
2018-10-11T02:43:23.422Z,101061.48
2018-10-11T02:44:01.552Z,101064.45
2018-10-11T02:44:39.431Z,101062.59
2018-10-11T02:45:17.342Z,101064.80
2018-10-11T02:45:55.262Z,101067.05
2018-10-11T02:46:33.061Z,101062.44
2018-10-11T02:47:11.355Z,101070.31
2018-10-11T02:47:49.258Z,101063.03
2018-10-11T02:48:27.222Z,101065.39
2018-10-11T02:49:05.276Z,101065.99
2018-10-11T02:49:43.772Z,101070.31
2018-10-11T02:50:21.696Z,101065.99
2018-10-11T02:50:59.700Z,101072.42
2018-10-11T02:51:37.892Z,101066.50
2018-10-11T02:52:16.670Z,101070.31
2018-10-11T02:52:54.833Z,101068.50
2018-10-11T02:53:32.913Z,101073.96
2018-10-11T02:54:12.077Z,101074.30
2018-10-11T02:54:49.938Z,101068.95
2018-10-11T02:55:29.761Z,101074.30
2018-10-11T02:56:09.141Z,101068.89
2018-10-11T02:56:47.346Z,101074.81
2018-10-11T02:57:34.057Z,101073.77
2018-10-11T02:58:20.956Z,101078.42
2018-10-11T02:59:23.095Z,101075.21
2018-10-11T03:00:02.499Z,101066.53
2018-10-11T03:00:40.935Z,101067.94
2018-10-11T03:01:19.162Z,101066.33
2018-10-11T03:01:57.729Z,101069.55
2018-10-11T03:02:36.098Z,101068.44
2018-10-11T03:03:17.625Z,101071.20
2018-10-11T03:04:00.941Z,101070.34
2018-10-11T03:04:39.873Z,101070.81
2018-10-11T03:05:21.046Z,101068.64
2018-10-11T03:06:03.652Z,101068.89
2018-10-11T03:06:42.106Z,101066.69
2018-10-11T03:07:20.308Z,101068.04
2018-10-11T03:07:58.429Z,101069.39
2018-10-11T03:08:36.959Z,101072.61
2018-10-11T03:09:15.204Z,101072.01
2018-10-11T03:09:53.441Z,101067.09
2018-10-11T03:10:31.444Z,101071.91
2018-10-11T03:11:09.397Z,101066.75
2018-10-11T03:11:47.488Z,101073.77
2018-10-11T03:12:25.428Z,101073.22
2018-10-11T03:13:03.252Z,101068.36
2018-10-11T03:13:41.141Z,101062.39
2018-10-11T03:14:19.023Z,101065.05
2018-10-11T03:14:57.242Z,101071.50
2018-10-11T03:15:35.084Z,101069.85
2018-10-11T03:16:13.020Z,101072.80
2018-10-11T03:16:50.969Z,101067.78
2018-10-11T03:17:29.061Z,101065.17
2018-10-11T03:18:07.142Z,101062.09
2018-10-11T03:18:45.089Z,101057.47
2018-10-11T03:19:23.350Z,101065.30
2018-10-11T03:20:01.218Z,101058.78
2018-10-11T03:20:39.089Z,101057.06
2018-10-11T03:21:17.063Z,101062.28
2018-10-11T03:21:54.989Z,101063.06
2018-10-11T03:22:34.277Z,101060.99
2018-10-11T03:23:13.502Z,101061.27
2018-10-11T03:23:51.764Z,101056.59
2018-10-11T03:24:29.805Z,101057.34
2018-10-11T03:25:07.981Z,101056.48
2018-10-11T03:25:46.987Z,101054.02
2018-10-11T03:26:25.063Z,101056.48
2018-10-11T03:27:03.291Z,101052.97
2018-10-11T03:27:41.167Z,101051.66
2018-10-11T03:28:19.914Z,101048.70
2018-10-11T03:28:57.758Z,101050.37
2018-10-11T03:29:35.628Z,101049.81
2018-10-11T03:30:13.628Z,101047.91
2018-10-11T03:30:51.711Z,101044.25
2018-10-11T03:31:30.076Z,101044.77
2018-10-11T03:32:08.061Z,101043.85
2018-10-11T03:32:46.168Z,101044.09
2018-10-11T03:33:24.179Z,101038.06
2018-10-11T03:34:02.097Z,101039.70
2018-10-11T03:34:40.103Z,101041.58
2018-10-11T03:35:17.981Z,101041.05
2018-10-11T03:35:55.921Z,101042.41
2018-10-11T03:36:33.850Z,101041.23
2018-10-11T03:37:11.741Z,101032.67
2018-10-11T03:37:49.492Z,101033.41
2018-10-11T03:38:27.886Z,101032.80
2018-10-11T03:39:48.895Z,101029.03
2018-10-11T03:40:26.883Z,101034.90
2018-10-11T03:41:04.749Z,101024.84
2018-10-11T03:41:42.596Z,101029.77
2018-10-11T03:42:20.492Z,101026.31
2018-10-11T03:42:59.354Z,101020.76
2018-10-11T03:43:37.272Z,101020.77
2018-10-11T03:44:16.518Z,101014.52
2018-10-11T03:44:55.937Z,101018.70
2018-10-11T03:45:33.982Z,101017.69
2018-10-11T03:46:11.976Z,101019.05
2018-10-11T03:46:49.957Z,101015.80
2018-10-11T03:47:28.152Z,101010.11
2018-10-11T03:48:06.612Z,101015.89
2018-10-11T03:48:44.508Z,101011.38
2018-10-11T03:49:22.447Z,101015.88
2018-10-11T03:50:00.633Z,101014.88
2018-10-11T03:50:38.425Z,101016.72
2018-10-11T03:51:16.482Z,101012.90
2018-10-11T03:51:54.390Z,101018.66
2018-10-11T03:52:35.970Z,101012.88
2018-10-11T03:53:13.937Z,101013.22
2018-10-11T03:53:51.892Z,101017.78
2018-10-11T03:54:30.172Z,101014.48
2018-10-11T03:55:08.184Z,101012.01
2018-10-11T03:55:46.014Z,101018.86
2018-10-11T03:56:24.501Z,101011.27
2018-10-11T03:57:02.326Z,101016.71
2018-10-11T03:57:40.775Z,101020.78
2018-10-11T03:58:18.733Z,101023.42
2018-10-11T03:58:57.286Z,101017.58
2018-10-11T03:59:35.145Z,101016.34
2018-10-11T04:00:13.085Z,101027.02
2018-10-11T04:00:50.991Z,101018.38
2018-10-11T04:01:29.073Z,101022.75
2018-10-11T04:02:07.108Z,101021.10
2018-10-11T04:02:48.752Z,101024.91
2018-10-11T04:03:26.775Z,101027.63
2018-10-11T04:04:04.648Z,101025.55
2018-10-11T04:04:42.581Z,101023.27
2018-10-11T04:05:20.509Z,101029.55
2018-10-11T04:05:58.276Z,101020.66
2018-10-11T04:06:36.416Z,101025.55
2018-10-11T04:07:14.727Z,101020.11
2018-10-11T04:07:52.673Z,101026.50
2018-10-11T04:08:30.579Z,101016.25
2018-10-11T04:09:09.431Z,101014.97
2018-10-11T04:09:47.404Z,101019.44
2018-10-11T04:10:25.258Z,101020.99
2018-10-11T04:11:03.659Z,101019.47
2018-10-11T04:11:41.564Z,101020.97
2018-10-11T04:12:19.555Z,101017.01
2018-10-11T04:12:57.486Z,101014.67
2018-10-11T04:13:35.359Z,101022.63
2018-10-11T04:14:13.285Z,101017.02
2018-10-11T04:14:52.990Z,101016.05
2018-10-11T04:15:31.142Z,101015.08
2018-10-11T04:16:09.121Z,101012.98
2018-10-11T04:16:47.197Z,101011.45
2018-10-11T04:17:25.145Z,101014.73
2018-10-11T04:18:03.006Z,101009.61
2018-10-11T04:18:41.044Z,101012.33
2018-10-11T04:19:19.429Z,101010.97
2018-10-11T04:19:57.239Z,101006.50
2018-10-11T04:20:35.056Z,101009.25
2018-10-11T04:21:13.617Z,101012.22
2018-10-11T04:21:51.695Z,101003.44
2018-10-11T04:22:29.646Z,101001.44
2018-10-11T04:23:07.780Z,101005.58
2018-10-11T04:23:45.656Z,101002.16
2018-10-11T04:24:23.519Z,100997.77
2018-10-11T04:25:01.593Z,101001.06
2018-10-11T04:25:39.631Z,100991.66
2018-10-11T04:26:17.832Z,100988.14
2018-10-11T04:26:55.667Z,100989.98
2018-10-11T04:27:33.478Z,100985.34
2018-10-11T04:28:11.568Z,100985.77
2018-10-11T04:28:49.541Z,100989.45
2018-10-11T04:29:27.908Z,100986.52
2018-10-11T04:30:05.779Z,100984.20
2018-10-11T04:30:44.351Z,100985.23
2018-10-11T04:31:22.246Z,100979.70
2018-10-11T04:32:00.256Z,100980.42
2018-10-11T04:32:38.223Z,100977.38
2018-10-11T04:33:16.028Z,100977.70
2018-10-11T04:33:54.069Z,100971.89
2018-10-11T04:34:31.983Z,100968.50
2018-10-11T04:35:10.026Z,100972.02
2018-10-11T04:35:47.822Z,100968.41
2018-10-11T04:36:25.756Z,100967.86
2018-10-11T04:37:03.712Z,100968.66
2018-10-11T04:37:41.950Z,100968.89
2018-10-11T04:38:19.977Z,100961.47
2018-10-11T04:38:58.102Z,100963.55
2018-10-11T04:39:36.002Z,100954.50
2018-10-11T04:40:14.802Z,100962.02
2018-10-11T04:40:52.749Z,100951.92
2018-10-11T04:43:09.356Z,100950.30
2018-10-11T04:43:47.314Z,100959.84
2018-10-11T04:44:25.633Z,100948.23
2018-10-11T04:45:03.561Z,100950.39
2018-10-11T04:45:41.689Z,100951.84
2018-10-11T04:46:19.641Z,100951.53
2018-10-11T04:46:57.567Z,100952.32
2018-10-11T04:47:35.484Z,100947.69
2018-10-11T04:48:13.725Z,100947.30
2018-10-11T04:48:51.604Z,100949.30
2018-10-11T04:49:29.623Z,100949.44
2018-10-11T04:50:07.518Z,100952.48
2018-10-11T04:50:46.443Z,100947.67
2018-10-11T04:51:24.384Z,100944.95
2018-10-11T04:52:02.243Z,100944.82
2018-10-11T04:52:40.181Z,100945.06
2018-10-11T04:53:18.248Z,100943.05
2018-10-11T04:53:57.103Z,100944.42
2018-10-11T04:54:35.083Z,100937.77
2018-10-11T04:55:13.038Z,100940.48
2018-10-11T04:55:50.884Z,100936.23
2018-10-11T04:56:30.667Z,100930.00
2018-10-11T04:57:08.583Z,100933.73
2018-10-11T04:57:46.680Z,100927.61
2018-10-11T04:58:24.481Z,100925.98
2018-10-11T04:59:02.466Z,100916.50
2018-10-11T04:59:40.514Z,100920.88
2018-10-11T05:00:18.589Z,100919.38
2018-10-11T05:00:57.365Z,100915.67
2018-10-11T05:01:35.393Z,100916.05
2018-10-11T05:02:13.341Z,100914.73
2018-10-11T05:02:51.273Z,100920.27
2018-10-11T05:03:33.073Z,100918.11
2018-10-11T05:04:11.488Z,100913.78
2018-10-11T05:04:49.354Z,100908.50
2018-10-11T05:05:27.436Z,100907.66
2018-10-11T05:06:05.499Z,100904.88
2018-10-11T05:06:43.545Z,100911.54
2018-10-11T05:07:21.541Z,100914.77
2018-10-11T05:07:59.588Z,100915.76
2018-10-11T05:08:38.152Z,100909.61
2018-10-11T05:09:16.327Z,100912.43
2018-10-11T05:09:54.234Z,100909.47
2018-10-11T05:10:32.176Z,100909.69
2018-10-11T05:11:10.195Z,100905.12
2018-10-11T05:11:48.299Z,100909.25
2018-10-11T05:12:26.303Z,100907.66
2018-10-11T05:13:04.808Z,100901.77
2018-10-11T05:13:50.736Z,100897.45
2018-10-11T05:14:28.804Z,100893.59
2018-10-11T05:15:07.105Z,100893.59
2018-10-11T05:15:46.545Z,100895.33
2018-10-11T05:16:24.561Z,100890.28
2018-10-11T05:17:03.076Z,100895.97
2018-10-11T05:17:41.114Z,100891.22
2018-10-11T05:18:23.002Z,100884.63
2018-10-11T05:19:04.797Z,100891.25
2018-10-11T05:19:43.430Z,100886.97
2018-10-11T05:20:21.307Z,100884.47
2018-10-11T05:20:59.138Z,100882.38
2018-10-11T05:21:37.171Z,100881.81
2018-10-11T05:25:16.781Z,100877.48
2018-10-11T05:25:54.753Z,100873.63
2018-10-11T05:26:32.911Z,100872.20
2018-10-11T05:27:11.001Z,100870.34
2018-10-11T05:27:49.075Z,100869.17
2018-10-11T05:28:27.312Z,100865.31
2018-10-11T05:29:05.151Z,100861.98
2018-10-11T05:29:43.262Z,100862.85
2018-10-11T05:30:21.263Z,100866.34
2018-10-11T05:30:59.288Z,100862.85
2018-10-11T05:31:37.356Z,100864.15
2018-10-11T05:32:15.734Z,100863.72
2018-10-11T05:32:54.796Z,100858.97
2018-10-11T05:33:33.321Z,100866.05
2018-10-11T05:34:11.632Z,100860.16
2018-10-11T05:34:49.466Z,100861.02
2018-10-11T05:35:27.350Z,100852.27
2018-10-11T05:36:05.245Z,100848.91
2018-10-11T05:36:43.211Z,100846.19
2018-10-11T05:37:21.039Z,100844.98
2018-10-11T05:37:59.190Z,100851.02
2018-10-11T05:38:37.139Z,100854.30
2018-10-11T05:39:15.047Z,100849.25
2018-10-11T05:39:53.037Z,100842.90
2018-10-11T05:40:31.049Z,100846.02
2018-10-11T05:41:09.456Z,100844.33
2018-10-11T05:41:47.568Z,100843.58
2018-10-11T05:42:25.850Z,100839.85
2018-10-11T05:43:04.377Z,100835.55
2018-10-11T05:43:42.742Z,100835.42
2018-10-11T05:44:21.321Z,100830.33
2018-10-11T05:45:09.853Z,100829.23
2018-10-11T05:45:53.968Z,100827.58
2018-10-11T05:46:34.472Z,100827.09
2018-10-11T05:47:12.599Z,100823.17
2018-10-11T05:47:50.818Z,100822.78
2018-10-11T05:48:29.477Z,100818.53
2018-10-11T05:49:08.898Z,100819.30
2018-10-11T05:49:47.012Z,100820.70
2018-10-11T05:50:25.295Z,100822.95
2018-10-11T05:51:04.157Z,100818.13
2018-10-11T05:51:42.116Z,100811.31
2018-10-11T05:52:20.369Z,100811.52
2018-10-11T05:52:58.496Z,100812.05
2018-10-11T05:53:36.934Z,100810.78
2018-10-11T05:54:15.272Z,100804.47
2018-10-11T05:54:53.217Z,100799.55
2018-10-11T05:55:31.367Z,100799.64
2018-10-11T05:56:09.515Z,100797.02
2018-10-11T05:56:49.076Z,100788.20
2018-10-11T05:57:27.296Z,100789.50
2018-10-11T05:58:05.182Z,100789.89
2018-10-11T05:58:43.465Z,100785.06
2018-10-11T05:59:21.685Z,100787.88
2018-10-11T05:59:59.799Z,100784.78
2018-10-11T06:00:39.125Z,100783.73
2018-10-11T06:01:17.187Z,100780.06
2018-10-11T06:01:55.025Z,100781.14
2018-10-11T06:02:33.147Z,100785.64
2018-10-11T06:03:11.309Z,100778.52
2018-10-11T06:03:50.000Z,100778.28
2018-10-11T06:04:28.043Z,100782.45
2018-10-11T06:05:06.070Z,100779.83
2018-10-11T06:05:43.970Z,100776.06
2018-10-11T06:06:21.949Z,100776.63
2018-10-11T06:07:00.193Z,100777.52
2018-10-11T06:07:38.248Z,100772.96
2018-10-11T06:08:18.225Z,100776.58
2018-10-11T06:08:57.029Z,100769.77
2018-10-11T06:09:35.099Z,100773.38
2018-10-11T06:10:13.092Z,100776.39
2018-10-11T06:10:51.345Z,100776.48
2018-10-11T06:11:29.992Z,100770.48
2018-10-11T06:12:08.006Z,100777.13
2018-10-11T06:12:46.396Z,100768.81
2018-10-11T06:13:25.131Z,100766.98
2018-10-11T06:14:03.100Z,100776.00
2018-10-11T06:14:41.014Z,100769.37
2018-10-11T06:15:18.944Z,100772.09
2018-10-11T06:15:56.939Z,100770.97
2018-10-11T06:16:34.794Z,100768.66
2018-10-11T06:17:12.684Z,100764.98
2018-10-11T06:17:50.610Z,100764.34
2018-10-11T06:18:29.114Z,100766.91
2018-10-11T06:19:07.102Z,100756.59
2018-10-11T06:19:45.224Z,100761.23
2018-10-11T06:20:23.177Z,100759.72
2018-10-11T06:21:01.144Z,100757.48
2018-10-11T06:21:39.285Z,100750.92
2018-10-11T06:22:17.432Z,100749.70
2018-10-11T06:22:55.755Z,100752.58
2018-10-11T06:23:33.813Z,100749.20
2018-10-11T06:24:12.027Z,100751.84
2018-10-11T06:24:50.068Z,100750.01
2018-10-11T06:25:28.068Z,100754.74
2018-10-11T06:26:06.490Z,100743.69
2018-10-11T06:26:44.682Z,100750.48
2018-10-11T06:27:22.633Z,100742.14
2018-10-11T06:28:00.828Z,100742.38
2018-10-11T06:28:38.911Z,100746.47
2018-10-11T06:29:16.769Z,100745.91
2018-10-11T06:30:38.417Z,100741.67
2018-10-11T06:31:16.697Z,100743.46
2018-10-11T06:31:54.768Z,100738.86
2018-10-11T06:32:32.961Z,100740.49
2018-10-11T06:33:10.853Z,100737.59
2018-10-11T06:33:48.860Z,100743.84
2018-10-11T06:34:26.756Z,100735.28
2018-10-11T06:35:05.185Z,100735.52
2018-10-11T06:35:43.255Z,100739.18
2018-10-11T06:36:21.378Z,100741.48
2018-10-11T06:37:00.201Z,100743.22
2018-10-11T06:37:38.188Z,100746.73
2018-10-11T06:38:16.526Z,100744.44
2018-10-11T06:38:55.102Z,100745.56
2018-10-11T06:39:33.209Z,100744.63
2018-10-11T06:40:11.349Z,100745.28
2018-10-11T06:40:49.593Z,100753.54
2018-10-11T06:41:27.801Z,100759.94
2018-10-11T06:42:06.011Z,100752.75
2018-10-11T06:42:44.498Z,100768.70
2018-10-11T06:43:22.930Z,100763.77
2018-10-11T06:44:01.285Z,100763.59
2018-10-11T06:44:39.165Z,100768.09
2018-10-11T06:45:18.050Z,100767.11
2018-10-11T06:45:56.242Z,100765.45
2018-10-11T06:46:34.272Z,100772.98
2018-10-11T06:47:12.257Z,100767.04
2018-10-11T06:47:53.411Z,100772.98
2018-10-11T06:48:31.541Z,100765.23
2018-10-11T06:49:09.712Z,100770.19
2018-10-11T06:49:47.718Z,100768.59
2018-10-11T06:50:25.785Z,100767.00
2018-10-11T06:51:03.691Z,100766.05
2018-10-11T06:51:41.727Z,100769.37
2018-10-11T06:52:19.661Z,100764.91
2018-10-11T06:52:57.729Z,100762.68
2018-10-11T06:53:35.694Z,100768.41
2018-10-11T06:54:13.629Z,100761.52
2018-10-11T06:54:51.901Z,100758.16
2018-10-11T06:55:29.856Z,100757.20
2018-10-11T06:56:07.843Z,100757.52
2018-10-11T06:56:45.854Z,100759.28
2018-10-11T06:57:23.875Z,100752.86
2018-10-11T06:58:01.823Z,100747.42
2018-10-11T06:58:39.661Z,100751.58
2018-10-11T06:59:17.608Z,100745.31
2018-10-11T06:59:55.782Z,100743.39
2018-10-11T07:00:33.696Z,100738.25
2018-10-11T07:01:12.865Z,100734.81
2018-10-11T07:01:50.969Z,100731.77
2018-10-11T07:02:28.979Z,100739.04
2018-10-11T07:03:07.126Z,100732.16
2018-10-11T07:03:45.212Z,100731.05
2018-10-11T07:04:23.058Z,100728.97
2018-10-11T07:05:01.087Z,100725.13
2018-10-11T07:05:38.957Z,100720.42
2018-10-11T07:06:17.121Z,100725.53
2018-10-11T07:06:55.050Z,100719.47
2018-10-11T07:07:32.901Z,100715.23
2018-10-11T07:08:10.743Z,100727.69
2018-10-11T07:08:48.700Z,100719.55
2018-10-11T07:09:26.605Z,100710.20
2018-10-11T07:10:04.523Z,100715.55
2018-10-11T07:10:42.502Z,100711.55
2018-10-11T07:11:24.948Z,100712.98
2018-10-11T07:12:02.988Z,100714.22
2018-10-11T07:12:41.135Z,100707.34
2018-10-11T07:13:19.016Z,100711.56
2018-10-11T07:13:56.990Z,100701.42
2018-10-11T07:14:34.893Z,100703.00
2018-10-11T07:15:12.835Z,100702.59
2018-10-11T07:15:50.744Z,100698.63
2018-10-11T07:16:28.675Z,100696.55
2018-10-11T07:17:06.533Z,100698.85
2018-10-11T07:17:44.391Z,100702.13
2018-10-11T07:18:22.291Z,100692.67
2018-10-11T07:19:00.223Z,100706.09
2018-10-11T07:19:39.400Z,100697.72
2018-10-11T07:20:17.478Z,100697.33
2018-10-11T07:20:55.409Z,100696.36
2018-10-11T07:21:34.313Z,100694.51
2018-10-11T07:22:12.109Z,100686.27
2018-10-11T07:22:50.028Z,100683.69
2018-10-11T07:23:27.919Z,100680.11
2018-10-11T07:24:05.846Z,100680.00
2018-10-11T07:24:43.671Z,100677.14
2018-10-11T07:25:21.737Z,100677.64
2018-10-11T07:25:59.695Z,100681.52
2018-10-11T07:26:38.036Z,100679.12